Time;durP1;ratioP1;P1;durP2;ratioP2;P2;SDS_P1;SDS_P2;PMS_P1;PMS_P2;Temp;Humidity;BMP_temperature;BMP_pressure;BME280_temperature;BME280_humidity;BME280_pressure;Samples;Min_cycle;Max_cycle;Signal;HPM_P1;HPM_P2
2021/08/30 00:01:43;;;;;;;19.85;13.25;;;;;;;;;;5132578;28;20428;-65
2021/08/30 00:04:29;;;;;;;19.08;12.85;;;;;;;;;;5132195;28;20497;-64
2021/08/30 00:07:14;;;;;;;18.75;14.07;;;;;;;;;;5132520;28;20121;-64
2021/08/30 00:09:59;;;;;;;19.50;13.15;;;;;;;;;;5132486;28;20125;-64
2021/08/30 00:12:45;;;;;;;20.08;13.25;;;;;;;;;;5132601;28;20052;-64
2021/08/30 00:15:30;;;;;;;18.17;13.18;;;;;;;;;;5132249;28;20122;-65
2021/08/30 00:18:15;;;;;;;21.65;14.05;;;;;;;;;;5132328;28;20047;-64
2021/08/30 00:21:00;;;;;;;19.98;14.82;;;;;;;;;;5134136;27;20047;-64
2021/08/30 00:23:46;;;;;;;24.92;14.15;;;;;;;;;;5135787;27;20405;-64
2021/08/30 00:26:31;;;;;;;17.98;14.32;;;;;;;;;;5135937;27;20083;-64
2021/08/30 00:29:16;;;;;;;23.85;15.10;;;;;;;;;;5135830;27;20088;-65
2021/08/30 00:32:02;;;;;;;19.17;14.68;;;;;;;;;;5135727;27;20555;-65
2021/08/30 00:34:47;;;;;;;22.70;15.05;;;;;;;;;;5135565;27;20051;-64
2021/08/30 00:37:32;;;;;;;21.05;15.30;;;;;;;;;;5135566;27;20047;-64
2021/08/30 00:40:18;;;;;;;22.33;16.20;;;;;;;;;;5135794;27;20055;-64
2021/08/30 00:43:03;;;;;;;20.02;15.57;;;;;;;;;;5135477;27;20493;-64
2021/08/30 00:45:48;;;;;;;27.75;15.77;;;;;;;;;;5135246;27;20047;-64
2021/08/30 00:48:34;;;;;;;26.30;15.63;;;;;;;;;;5135527;27;20047;-64
2021/08/30 00:51:19;;;;;;;22.98;14.90;;;;;;;;;;5135552;27;20114;-64
2021/08/30 00:54:06;;;;;;;24.40;17.15;;;;;;;;;;5135103;27;20092;-64
2021/08/30 00:56:51;;;;;;;19.98;13.90;;;;;;;;;;5134512;27;20055;-64
2021/08/30 00:59:39;;;;;;;24.33;15.65;;;;;;;;;;5135233;27;20501;-64
2021/08/30 01:02:25;;;;;;;22.75;16.75;;;;;;;;;;5134138;27;20443;-64
2021/08/30 01:05:11;;;;;;;23.02;16.13;;;;;;;;;;5135128;27;20055;-64
2021/08/30 01:07:56;;;;;;;20.90;15.82;;;;;;;;;;5135162;27;20051;-65
2021/08/30 01:10:52;;;;;;;22.83;15.32;;;;;;;;;;5135074;27;20043;-64
2021/08/30 01:13:42;;;;;;;24.40;16.58;;;;;;;;;;5134951;27;20386;-65
2021/08/30 01:16:27;;;;;;;25.10;15.48;;;;;;;;;;5134909;27;20497;-64
2021/08/30 01:19:13;;;;;;;23.98;17.08;;;;;;;;;;5134826;27;20130;-64
2021/08/30 01:21:58;;;;;;;23.63;16.35;;;;;;;;;;5135014;27;20059;-64
2021/08/30 01:24:43;;;;;;;26.63;17.17;;;;;;;;;;5133632;27;20051;-65
2021/08/30 01:27:28;;;;;;;24.45;17.10;;;;;;;;;;5133647;27;20516;-64
2021/08/30 01:30:15;;;;;;;26.60;17.75;;;;;;;;;;5134787;27;20092;-64
2021/08/30 01:33:00;;;;;;;22.65;16.27;;;;;;;;;;5133632;27;20118;-64
2021/08/30 01:35:45;;;;;;;22.92;17.17;;;;;;;;;;5134303;27;20114;-64
2021/08/30 01:38:31;;;;;;;27.75;18.20;;;;;;;;;;5134575;27;20051;-65
2021/08/30 01:41:16;;;;;;;29.98;17.95;;;;;;;;;;5133569;27;20049;-64
2021/08/30 01:44:01;;;;;;;28.17;18.17;;;;;;;;;;5133043;27;20047;-65
2021/08/30 01:46:46;;;;;;;27.00;16.63;;;;;;;;;;5133328;27;20450;-64
2021/08/30 01:49:32;;;;;;;22.88;18.05;;;;;;;;;;5134387;27;20438;-64
2021/08/30 01:52:17;;;;;;;27.48;18.60;;;;;;;;;;5133226;27;20051;-64
2021/08/30 01:55:11;;;;;;;28.27;19.13;;;;;;;;;;5134091;27;20130;-64
2021/08/30 02:00:52;;;;;;;38.60;19.17;;;;;;;;;;5133017;27;20043;-64
2021/08/30 02:03:37;;;;;;;31.90;19.65;;;;;;;;;;5133909;27;20043;-64
2021/08/30 02:06:22;;;;;;;31.08;19.88;;;;;;;;;;5133993;27;20121;-64
2021/08/30 02:09:08;;;;;;;39.85;21.85;;;;;;;;;;5133820;27;20122;-64
2021/08/30 02:11:53;;;;;;;29.65;18.45;;;;;;;;;;5133791;27;20493;-64
2021/08/30 02:14:39;;;;;;;31.75;19.23;;;;;;;;;;5133616;27;20047;-64
2021/08/30 02:17:24;;;;;;;30.85;19.45;;;;;;;;;;5132639;27;20063;-64
2021/08/30 02:20:10;;;;;;;36.83;20.33;;;;;;;;;;5132037;27;20511;-64
2021/08/30 02:22:56;;;;;;;33.45;21.10;;;;;;;;;;5132741;27;20122;-64
2021/08/30 02:25:41;;;;;;;32.33;19.02;;;;;;;;;;5132430;27;20047;-64
2021/08/30 02:28:26;;;;;;;31.30;20.30;;;;;;;;;;5132724;27;20047;-65
2021/08/30 02:31:12;;;;;;;38.22;20.48;;;;;;;;;;5132669;27;20047;-65
2021/08/30 02:33:57;;;;;;;34.38;19.60;;;;;;;;;;5133265;27;20054;-65
2021/08/30 02:36:43;;;;;;;37.95;21.42;;;;;;;;;;5132579;27;20055;-65
2021/08/30 02:39:28;;;;;;;34.95;21.30;;;;;;;;;;5133978;27;20107;-64
2021/08/30 02:42:14;;;;;;;36.10;22.58;;;;;;;;;;5135021;27;20047;-64
2021/08/30 02:45:00;;;;;;;39.97;21.30;;;;;;;;;;5132963;27;20051;-64
2021/08/30 02:47:46;;;;;;;40.45;22.20;;;;;;;;;;5133631;27;20051;-64
2021/08/30 02:50:31;;;;;;;36.50;22.33;;;;;;;;;;5132315;27;20051;-64
2021/08/30 02:53:16;;;;;;;41.72;21.35;;;;;;;;;;5133398;27;20122;-65
2021/08/30 02:56:01;;;;;;;36.03;22.83;;;;;;;;;;5133224;27;20055;-64
2021/08/30 02:58:47;;;;;;;38.33;22.10;;;;;;;;;;5133066;27;20118;-65
2021/08/30 03:01:32;;;;;;;44.53;22.77;;;;;;;;;;5132303;27;20447;-65
2021/08/30 03:04:17;;;;;;;33.97;21.95;;;;;;;;;;5131786;27;20501;-64
2021/08/30 03:07:02;;;;;;;42.72;23.55;;;;;;;;;;5132029;28;20061;-65
2021/08/30 03:09:47;;;;;;;36.55;21.38;;;;;;;;;;5132950;28;20548;-65
2021/08/30 03:12:37;;;;;;;37.95;22.63;;;;;;;;;;5132079;28;20047;-65
2021/08/30 03:15:23;;;;;;;40.13;21.67;;;;;;;;;;5132704;28;20051;-64
2021/08/30 03:18:09;;;;;;;45.40;24.17;;;;;;;;;;5132788;28;20122;-64
2021/08/30 03:20:54;;;;;;;44.35;23.33;;;;;;;;;;5133173;28;20051;-64
2021/08/30 03:23:39;;;;;;;44.17;24.98;;;;;;;;;;5131648;28;20051;-65
2021/08/30 03:26:25;;;;;;;37.80;25.25;;;;;;;;;;5131795;28;20418;-65
2021/08/30 03:29:10;;;;;;;50.10;24.27;;;;;;;;;;5132898;28;20443;-65
2021/08/30 03:31:55;;;;;;;44.58;24.15;;;;;;;;;;5131780;28;20398;-65
2021/08/30 03:34:41;;;;;;;38.75;25.00;;;;;;;;;;5131475;28;20058;-64
2021/08/30 03:37:26;;;;;;;53.10;27.10;;;;;;;;;;5131835;28;20055;-64
2021/08/30 03:40:11;;;;;;;45.80;25.30;;;;;;;;;;5132745;28;20126;-64
2021/08/30 03:42:57;;;;;;;44.60;24.70;;;;;;;;;;5132478;28;20100;-65
2021/08/30 03:45:42;;;;;;;49.00;24.85;;;;;;;;;;5131592;28;20052;-65
2021/08/30 03:48:27;;;;;;;43.83;25.33;;;;;;;;;;5132493;28;20088;-65
2021/08/30 03:51:12;;;;;;;43.90;26.25;;;;;;;;;;5130008;28;20404;-64
2021/08/30 03:53:57;;;;;;;49.28;26.00;;;;;;;;;;5130325;27;20134;-65
2021/08/30 03:56:42;;;;;;;51.50;27.00;;;;;;;;;;5133719;27;20043;-64
2021/08/30 03:59:29;;;;;;;48.63;27.45;;;;;;;;;;5133450;27;20051;-65
2021/08/30 04:02:14;;;;;;;46.30;24.60;;;;;;;;;;5133722;27;20047;-65
2021/08/30 04:04:59;;;;;;;54.78;27.65;;;;;;;;;;5134172;27;20055;-65
2021/08/30 04:07:44;;;;;;;50.08;26.63;;;;;;;;;;5135140;27;20501;-64
2021/08/30 04:10:30;;;;;;;57.15;27.90;;;;;;;;;;5136394;27;20134;-65
2021/08/30 04:13:15;;;;;;;53.80;28.77;;;;;;;;;;5135258;27;20055;-64
2021/08/30 04:16:00;;;;;;;49.70;28.73;;;;;;;;;;5136169;27;20118;-64
2021/08/30 04:18:45;;;;;;;56.92;27.25;;;;;;;;;;5136189;27;20051;-64
2021/08/30 04:21:30;;;;;;;54.67;27.90;;;;;;;;;;5136165;27;20048;-65
2021/08/30 04:24:16;;;;;;;55.53;28.63;;;;;;;;;;5135658;27;20043;-65
2021/08/30 04:27:01;;;;;;;54.42;28.25;;;;;;;;;;5135975;27;20084;-65
2021/08/30 04:29:47;;;;;;;55.22;29.95;;;;;;;;;;5135788;27;20501;-64
2021/08/30 04:32:35;;;;;;;59.80;29.63;;;;;;;;;;5135787;27;20051;-65
2021/08/30 04:35:20;;;;;;;58.88;29.45;;;;;;;;;;5135678;27;20099;-64
2021/08/30 04:38:05;;;;;;;58.28;28.60;;;;;;;;;;5135707;27;20047;-65
2021/08/30 04:40:50;;;;;;;62.47;29.92;;;;;;;;;;5135603;27;20055;-64
2021/08/30 04:43:36;;;;;;;52.95;29.27;;;;;;;;;;5134490;27;20046;-64
2021/08/30 04:46:21;;;;;;;52.08;29.08;;;;;;;;;;5135666;27;20039;-64
2021/08/30 04:49:06;;;;;;;51.75;27.23;;;;;;;;;;5135525;27;20122;-65
2021/08/30 04:51:51;;;;;;;51.17;29.05;;;;;;;;;;5135382;27;20501;-65
2021/08/30 04:54:37;;;;;;;47.58;27.20;;;;;;;;;;5135261;27;20051;-65
2021/08/30 04:57:22;;;;;;;47.75;27.35;;;;;;;;;;5135267;27;20093;-64
2021/08/30 05:00:08;;;;;;;46.10;26.55;;;;;;;;;;5135211;27;20054;-64
2021/08/30 05:02:53;;;;;;;53.90;25.30;;;;;;;;;;5135228;27;20051;-64
2021/08/30 05:05:38;;;;;;;48.15;27.25;;;;;;;;;;5134679;27;20047;-66
2021/08/30 05:08:24;;;;;;;45.60;25.60;;;;;;;;;;5134990;27;20051;-65
2021/08/30 05:11:09;;;;;;;48.20;25.48;;;;;;;;;;5134956;27;20516;-65
2021/08/30 05:13:54;;;;;;;45.25;25.08;;;;;;;;;;5134770;27;20443;-65
2021/08/30 05:16:40;;;;;;;39.35;23.13;;;;;;;;;;5134702;27;20507;-64
2021/08/30 05:19:25;;;;;;;43.55;23.52;;;;;;;;;;5135239;27;20043;-64
2021/08/30 05:22:13;;;;;;;45.10;23.33;;;;;;;;;;5134924;27;20051;-65
2021/08/30 05:24:58;;;;;;;40.83;22.25;;;;;;;;;;5134242;27;20493;-65
2021/08/30 05:27:46;;;;;;;36.05;22.15;;;;;;;;;;5134967;27;20043;-65
2021/08/30 05:30:31;;;;;;;39.60;23.38;;;;;;;;;;5134433;27;20122;-65
2021/08/30 05:33:17;;;;;;;39.30;21.95;;;;;;;;;;5134482;27;20047;-66
2021/08/30 05:36:02;;;;;;;35.90;22.50;;;;;;;;;;5134664;27;20118;-65
2021/08/30 05:38:47;;;;;;;36.88;20.75;;;;;;;;;;5134480;27;20044;-64
2021/08/30 05:41:33;;;;;;;36.13;21.05;;;;;;;;;;5134243;27;20497;-64
2021/08/30 05:44:18;;;;;;;31.98;19.33;;;;;;;;;;5134308;27;20043;-65
2021/08/30 05:47:03;;;;;;;30.67;19.27;;;;;;;;;;5134048;27;20063;-64
2021/08/30 05:49:48;;;;;;;30.40;19.70;;;;;;;;;;5134301;27;20047;-64
2021/08/30 05:52:34;;;;;;;31.60;20.02;;;;;;;;;;5134404;27;20039;-64
2021/08/30 05:55:20;;;;;;;32.17;20.02;;;;;;;;;;5134030;27;20086;-65
2021/08/30 05:58:05;;;;;;;29.77;20.20;;;;;;;;;;5134099;27;20059;-64
2021/08/30 06:00:50;;;;;;;43.33;20.20;;;;;;;;;;5134011;27;20513;-64
2021/08/30 06:03:35;;;;;;;29.85;18.10;;;;;;;;;;5133754;27;20051;-64
2021/08/30 06:06:21;;;;;;;28.13;19.20;;;;;;;;;;5133969;27;20118;-65
2021/08/30 06:09:06;;;;;;;30.75;19.38;;;;;;;;;;5134065;27;20051;-65
2021/08/30 06:11:51;;;;;;;30.17;18.27;;;;;;;;;;5134084;27;20088;-65
2021/08/30 06:14:37;;;;;;;32.22;18.55;;;;;;;;;;5133662;27;20450;-64
2021/08/30 06:17:22;;;;;;;30.33;18.92;;;;;;;;;;5133290;27;20504;-64
2021/08/30 06:20:07;;;;;;;32.10;18.40;;;;;;;;;;5133750;27;20103;-64
2021/08/30 06:22:53;;;;;;;31.67;17.52;;;;;;;;;;5133741;27;20051;-65
2021/08/30 06:25:38;;;;;;;31.60;17.90;;;;;;;;;;5133231;27;20516;-65
2021/08/30 06:28:24;;;;;;;31.70;17.90;;;;;;;;;;5133637;27;20413;-66
2021/08/30 06:31:09;;;;;;;27.98;17.75;;;;;;;;;;5133535;27;20047;-65
2021/08/30 06:33:55;;;;;;;23.13;17.10;;;;;;;;;;5133197;27;20059;-64
2021/08/30 06:36:41;;;;;;;28.45;17.75;;;;;;;;;;5133309;27;20509;-65
2021/08/30 06:39:26;;;;;;;22.98;17.67;;;;;;;;;;5133415;27;20055;-64
2021/08/30 06:42:11;;;;;;;21.65;15.95;;;;;;;;;;5133469;27;20126;-64
2021/08/30 06:44:57;;;;;;;22.02;15.88;;;;;;;;;;5132983;27;20463;-64
2021/08/30 06:47:42;;;;;;;22.23;15.40;;;;;;;;;;5132994;27;20519;-65
2021/08/30 06:50:27;;;;;;;21.88;12.93;;;;;;;;;;5133133;27;20051;-64
2021/08/30 06:53:14;;;;;;;22.23;15.32;;;;;;;;;;5133272;27;20051;-64
2021/08/30 06:55:59;;;;;;;20.60;15.32;;;;;;;;;;5133094;27;20420;-64
2021/08/30 06:58:44;;;;;;;24.20;13.80;;;;;;;;;;5132713;27;20520;-64
2021/08/30 07:01:30;;;;;;;15.35;13.55;;;;;;;;;;5133097;27;20047;-64
2021/08/30 07:04:15;;;;;;;19.40;13.65;;;;;;;;;;5132712;27;20051;-64
2021/08/30 07:07:00;;;;;;;17.45;13.50;;;;;;;;;;5132849;27;20047;-64
2021/08/30 07:09:46;;;;;;;19.98;13.82;;;;;;;;;;5133168;28;20047;-65
2021/08/30 07:12:31;;;;;;;18.95;13.55;;;;;;;;;;5133041;28;20428;-64
2021/08/30 07:15:16;;;;;;;18.20;13.50;;;;;;;;;;5132522;28;20051;-64
2021/08/30 07:18:02;;;;;;;19.80;13.38;;;;;;;;;;5133046;28;20435;-65
2021/08/30 07:20:48;;;;;;;17.13;12.68;;;;;;;;;;5132841;28;20068;-65
2021/08/30 07:23:35;;;;;;;16.52;12.40;;;;;;;;;;5132339;28;20047;-65
2021/08/30 07:26:20;;;;;;;16.48;13.02;;;;;;;;;;5133156;28;20047;-65
2021/08/30 07:29:05;;;;;;;18.58;12.13;;;;;;;;;;5133509;27;20073;-65
2021/08/30 07:31:50;;;;;;;14.68;12.38;;;;;;;;;;5136932;27;20126;-64
2021/08/30 07:34:36;;;;;;;18.73;12.23;;;;;;;;;;5136672;27;20413;-65
2021/08/30 07:37:21;;;;;;;15.98;10.85;;;;;;;;;;5136747;27;20051;-66
2021/08/30 07:40:07;;;;;;;17.63;11.23;;;;;;;;;;5136871;27;20051;-64
2021/08/30 07:42:52;;;;;;;14.30;11.45;;;;;;;;;;5136950;27;20054;-64
2021/08/30 07:45:37;;;;;;;15.77;11.48;;;;;;;;;;5136553;27;20051;-64
2021/08/30 07:48:22;;;;;;;14.50;10.68;;;;;;;;;;5136535;27;20043;-65
2021/08/30 07:51:07;;;;;;;15.90;10.98;;;;;;;;;;5135628;27;20126;-64
2021/08/30 07:53:52;;;;;;;14.00;10.75;;;;;;;;;;5136419;27;20055;-65
2021/08/30 07:56:39;;;;;;;14.18;10.57;;;;;;;;;;5136491;27;20051;-65
2021/08/30 07:59:25;;;;;;;13.00;10.82;;;;;;;;;;5136697;27;20055;-65
2021/08/30 08:02:10;;;;;;;14.65;10.00;;;;;;;;;;5136569;27;20051;-65
2021/08/30 08:04:56;;;;;;;14.07;10.40;;;;;;;;;;5136134;27;20051;-65
2021/08/30 08:07:41;;;;;;;11.23;9.32;;;;;;;;;;5136404;27;20047;-65
2021/08/30 08:10:26;;;;;;;11.18;10.05;;;;;;;;;;5136438;27;20108;-66
2021/08/30 08:13:12;;;;;;;11.85;8.57;;;;;;;;;;5136114;27;20493;-66
2021/08/30 08:15:57;;;;;;;12.10;8.80;;;;;;;;;;5136331;27;20055;-66
2021/08/30 08:18:42;;;;;;;12.25;9.07;;;;;;;;;;5136228;27;20047;-64
2021/08/30 08:21:28;;;;;;;13.98;8.52;;;;;;;;;;5135973;27;20051;-64
2021/08/30 08:24:13;;;;;;;11.55;8.23;;;;;;;;;;5135607;27;20047;-64
2021/08/30 08:27:00;;;;;;;14.00;9.25;;;;;;;;;;5136013;27;20043;-64
2021/08/30 08:29:45;;;;;;;9.32;7.55;;;;;;;;;;5135946;27;20055;-65
2021/08/30 08:32:30;;;;;;;9.05;8.20;;;;;;;;;;5135806;27;20062;-65
2021/08/30 08:35:16;;;;;;;9.32;6.95;;;;;;;;;;5135618;27;20125;-65
2021/08/30 08:38:01;;;;;;;10.27;7.90;;;;;;;;;;5135650;27;20055;-65
2021/08/30 08:40:46;;;;;;;9.13;7.28;;;;;;;;;;5134792;27;20047;-64
2021/08/30 08:43:32;;;;;;;8.32;6.90;;;;;;;;;;5135472;27;20043;-65
2021/08/30 08:46:17;;;;;;;9.13;7.80;;;;;;;;;;5134594;27;20053;-67
2021/08/30 08:49:02;;;;;;;6.47;5.88;;;;;;;;;;5148154;22;20044;-65
2021/08/30 08:51:47;;;;;;;9.38;7.63;;;;;;;;;;5100891;28;20052;-64
2021/08/30 08:54:33;;;;;;;8.77;7.47;;;;;;;;;;5097488;28;20507;-64
2021/08/30 08:57:18;;;;;;;9.30;6.78;;;;;;;;;;5098718;28;20048;-64
2021/08/30 09:00:04;;;;;;;10.38;7.32;;;;;;;;;;5095846;28;20502;-63
2021/08/30 09:02:50;;;;;;;8.50;6.45;;;;;;;;;;5094386;28;20472;-63
2021/08/30 09:05:35;;;;;;;8.15;6.35;;;;;;;;;;5093868;28;20452;-64
2021/08/30 09:08:28;;;;;;;10.23;6.93;;;;;;;;;;5094011;28;20510;-63
2021/08/30 09:11:21;;;;;;;9.38;6.50;;;;;;;;;;5094413;28;20505;-63
2021/08/30 09:14:12;;;;;;;8.80;6.38;;;;;;;;;;5093751;28;20119;-63
2021/08/30 09:17:07;;;;;;;8.38;6.25;;;;;;;;;;5095023;28;20117;-64
2021/08/30 09:19:53;;;;;;;9.35;6.70;;;;;;;;;;5095753;28;20512;-64
2021/08/30 09:22:39;;;;;;;8.35;6.03;;;;;;;;;;5098814;28;20436;-63
2021/08/30 09:25:24;;;;;;;10.23;6.22;;;;;;;;;;5097348;28;20052;-64
2021/08/30 09:28:09;;;;;;;8.40;5.85;;;;;;;;;;5085326;28;20048;-65
2021/08/30 09:30:56;;;;;;;8.82;5.70;;;;;;;;;;5093810;28;20051;-63
2021/08/30 09:33:47;;;;;;;6.07;5.47;;;;;;;;;;5093561;28;20123;-63
2021/08/30 09:36:41;;;;;;;8.10;6.13;;;;;;;;;;5093584;28;20497;-63
2021/08/30 09:39:26;;;;;;;5.28;4.70;;;;;;;;;;5093744;28;20528;-64
2021/08/30 09:42:12;;;;;;;7.13;5.40;;;;;;;;;;5098389;28;20518;-65
2021/08/30 09:45:07;;;;;;;7.88;6.00;;;;;;;;;;5096143;28;20505;-64
2021/08/30 09:47:54;;;;;;;5.85;5.20;;;;;;;;;;5093140;28;20506;-64
2021/08/30 09:50:43;;;;;;;8.02;5.53;;;;;;;;;;5093478;28;20089;-64
2021/08/30 09:53:28;;;;;;;7.50;5.35;;;;;;;;;;5093088;28;20052;-64
2021/08/30 09:56:14;;;;;;;8.95;4.80;;;;;;;;;;5098312;28;20052;-65
2021/08/30 09:58:59;;;;;;;5.20;4.70;;;;;;;;;;5094409;28;20056;-63
2021/08/30 10:01:44;;;;;;;7.60;4.43;;;;;;;;;;5096575;28;20048;-64
2021/08/30 10:04:30;;;;;;;7.55;4.50;;;;;;;;;;5099743;28;20044;-65
2021/08/30 10:07:15;;;;;;;7.03;4.65;;;;;;;;;;5096989;28;20048;-63
2021/08/30 10:10:01;;;;;;;6.13;5.07;;;;;;;;;;5093074;28;20044;-65
2021/08/30 10:12:46;;;;;;;7.85;4.60;;;;;;;;;;5092917;28;20493;-63
2021/08/30 10:15:32;;;;;;;6.55;4.65;;;;;;;;;;5092763;28;20055;-64
2021/08/30 10:18:20;;;;;;;4.97;4.10;;;;;;;;;;5077646;28;20090;-64
2021/08/30 10:21:16;;;;;;;5.25;4.22;;;;;;;;;;5093008;28;20052;-64
2021/08/30 10:24:10;;;;;;;4.90;4.47;;;;;;;;;;5092607;28;20048;-63
2021/08/30 10:27:03;;;;;;;4.05;3.63;;;;;;;;;;5092655;28;20052;-64
2021/08/30 10:29:48;;;;;;;4.80;4.20;;;;;;;;;;5092803;28;20056;-63
2021/08/30 10:32:37;;;;;;;4.90;3.80;;;;;;;;;;5092654;28;20043;-63
2021/08/30 10:35:24;;;;;;;6.43;3.65;;;;;;;;;;5092259;28;20064;-63
2021/08/30 10:38:16;;;;;;;4.20;3.80;;;;;;;;;;5092159;28;20048;-64
2021/08/30 10:41:02;;;;;;;6.30;3.72;;;;;;;;;;5092557;28;20464;-63
2021/08/30 10:43:47;;;;;;;5.65;3.67;;;;;;;;;;5092170;28;20052;-64
2021/08/30 10:46:42;;;;;;;4.43;3.55;;;;;;;;;;5092517;28;20044;-64
2021/08/30 10:49:27;;;;;;;4.15;3.72;;;;;;;;;;5092566;28;20210;-63
2021/08/30 10:52:14;;;;;;;4.38;3.90;;;;;;;;;;5092195;28;20051;-62
2021/08/30 10:54:59;;;;;;;6.03;4.13;;;;;;;;;;5077182;28;20130;-62
2021/08/30 10:57:51;;;;;;;5.28;3.42;;;;;;;;;;5092367;28;20123;-63
2021/08/30 11:00:36;;;;;;;5.15;4.60;;;;;;;;;;5092180;28;20073;-63
2021/08/30 11:03:29;;;;;;;5.75;4.35;;;;;;;;;;5092261;28;20052;-62
2021/08/30 11:06:15;;;;;;;4.85;3.92;;;;;;;;;;5092222;28;20052;-63
2021/08/30 11:09:01;;;;;;;4.50;4.10;;;;;;;;;;5077169;28;20048;-63
2021/08/30 11:11:49;;;;;;;5.70;3.92;;;;;;;;;;5092178;28;20044;-63
2021/08/30 11:14:35;;;;;;;5.30;4.35;;;;;;;;;;5091882;28;20048;-64
2021/08/30 11:17:25;;;;;;;6.07;3.85;;;;;;;;;;5092124;28;20048;-63
2021/08/30 11:20:11;;;;;;;6.20;4.28;;;;;;;;;;5091928;28;20506;-63
2021/08/30 11:22:56;;;;;;;8.07;5.30;;;;;;;;;;5092071;28;20598;-63
2021/08/30 11:25:41;;;;;;;6.13;4.97;;;;;;;;;;5091810;28;20044;-62
2021/08/30 11:28:26;;;;;;;5.18;4.68;;;;;;;;;;5091892;28;20048;-63
2021/08/30 11:31:21;;;;;;;5.57;4.28;;;;;;;;;;5091660;28;20560;-64
2021/08/30 11:34:07;;;;;;;5.78;4.65;;;;;;;;;;5092022;28;20044;-63
2021/08/30 11:36:53;;;;;;;5.15;3.60;;;;;;;;;;5092005;28;20052;-63
2021/08/30 11:39:38;;;;;;;5.18;4.55;;;;;;;;;;5091761;28;20509;-63
2021/08/30 11:42:24;;;;;;;5.65;4.50;;;;;;;;;;5092072;28;20052;-62
2021/08/30 11:45:11;;;;;;;5.38;4.85;;;;;;;;;;5091661;28;20043;-63
2021/08/30 11:47:56;;;;;;;6.53;4.82;;;;;;;;;;5091574;28;20048;-63
2021/08/30 11:50:41;;;;;;;4.47;4.05;;;;;;;;;;5092071;28;20087;-63
2021/08/30 11:53:26;;;;;;;5.25;4.25;;;;;;;;;;5077129;28;20127;-63
2021/08/30 11:56:13;;;;;;;5.30;4.20;;;;;;;;;;5091706;28;20131;-64
2021/08/30 11:59:00;;;;;;;4.85;4.43;;;;;;;;;;5091811;28;20055;-64
2021/08/30 12:01:45;;;;;;;4.88;4.30;;;;;;;;;;5091760;28;20060;-64
2021/08/30 12:04:31;;;;;;;6.45;4.32;;;;;;;;;;5091184;28;20498;-63
2021/08/30 12:07:18;;;;;;;4.63;3.97;;;;;;;;;;5091729;28;20669;-64
2021/08/30 12:10:10;;;;;;;4.78;4.00;;;;;;;;;;5076579;28;20087;-64
2021/08/30 12:13:07;;;;;;;;;;;;;;;;;;5092088;28;20106;-62
2021/08/30 12:15:52;;;;;;;7.47;4.80;;;;;;;;;;5091697;28;19920;-64
2021/08/30 12:18:47;;;;;;;8.57;4.60;;;;;;;;;;5095246;28;20047;-64
2021/08/30 12:21:33;;;;;;;7.78;4.03;;;;;;;;;;5095044;28;20521;-64
2021/08/30 12:24:19;;;;;;;5.40;4.03;;;;;;;;;;5095936;28;20056;-78
2021/08/30 12:27:05;;;;;;;4.55;4.00;;;;;;;;;;5064201;28;20056;-79
2021/08/30 12:29:50;;;;;;;5.13;3.95;;;;;;;;;;5049511;28;20525;-79
2021/08/30 12:32:52;;;;;;;5.63;4.32;;;;;;;;;;5065903;28;20055;-78
2021/08/30 12:35:41;;;;;;;5.30;4.57;;;;;;;;;;5078332;28;20056;-78
2021/08/30 12:38:27;;;;;;;5.65;4.07;;;;;;;;;;5049938;28;20482;-76
2021/08/30 12:41:13;;;;;;;6.28;4.70;;;;;;;;;;5063580;28;20056;-77
2021/08/30 12:43:58;;;;;;;7.07;4.70;;;;;;;;;;5064036;28;20055;-78
2021/08/30 12:46:43;;;;;;;5.97;4.95;;;;;;;;;;5076605;28;20052;-64
2021/08/30 12:49:28;;;;;;;4.50;3.90;;;;;;;;;;5094503;28;20048;-63
2021/08/30 12:52:13;;;;;;;7.60;4.25;;;;;;;;;;5094791;28;20048;-64
2021/08/30 12:54:58;;;;;;;6.70;4.38;;;;;;;;;;5079443;28;20048;-63
2021/08/30 12:57:43;;;;;;;6.50;4.90;;;;;;;;;;5095247;28;20048;-65
2021/08/30 13:00:29;;;;;;;7.90;4.70;;;;;;;;;;5095839;28;20115;-65
2021/08/30 13:03:14;;;;;;;6.65;4.95;;;;;;;;;;5098395;28;20048;-66
2021/08/30 13:05:59;;;;;;;5.55;4.72;;;;;;;;;;5098038;28;20048;-64
2021/08/30 13:08:45;;;;;;;7.03;4.60;;;;;;;;;;5093989;28;20051;-64
2021/08/30 13:11:34;;;;;;;6.18;4.50;;;;;;;;;;5094083;28;20052;-64
2021/08/30 13:14:19;;;;;;;5.90;4.90;;;;;;;;;;5094831;28;20047;-65
2021/08/30 13:17:05;;;;;;;5.97;4.18;;;;;;;;;;5099348;28;20119;-64
2021/08/30 13:19:50;;;;;;;4.28;3.67;;;;;;;;;;5093986;28;20058;-64
2021/08/30 13:22:35;;;;;;;5.28;4.78;;;;;;;;;;5094180;28;20060;-64
2021/08/30 13:25:22;;;;;;;5.15;4.55;;;;;;;;;;5093653;28;20048;-64
2021/08/30 13:28:07;;;;;;;5.63;4.40;;;;;;;;;;5101677;28;20082;-64
2021/08/30 13:30:52;;;;;;;5.43;4.38;;;;;;;;;;5095110;28;20044;-65
2021/08/30 13:33:38;;;;;;;5.70;4.10;;;;;;;;;;5098777;28;20442;-65
2021/08/30 13:36:23;;;;;;;7.13;4.15;;;;;;;;;;5102137;28;20052;-65
2021/08/30 13:39:09;;;;;;;7.57;4.90;;;;;;;;;;5101133;28;20052;-65
2021/08/30 13:41:55;;;;;;;5.65;5.03;;;;;;;;;;5102801;28;20077;-65
2021/08/30 13:44:40;;;;;;;4.70;4.18;;;;;;;;;;5093181;28;20056;-64
2021/08/30 13:47:26;;;;;;;5.57;4.72;;;;;;;;;;5093432;28;20056;-64
2021/08/30 13:50:12;;;;;;;5.82;4.82;;;;;;;;;;5093433;28;20052;-64
2021/08/30 13:52:57;;;;;;;7.93;4.82;;;;;;;;;;5093330;28;20572;-64
2021/08/30 13:55:42;;;;;;;6.60;3.88;;;;;;;;;;5093220;28;20052;-64
2021/08/30 13:58:28;;;;;;;5.40;4.28;;;;;;;;;;5093180;28;20048;-64
2021/08/30 14:01:13;;;;;;;6.22;4.50;;;;;;;;;;5093222;28;20056;-64
2021/08/30 14:03:58;;;;;;;6.75;4.80;;;;;;;;;;5092881;28;20502;-64
2021/08/30 14:06:44;;;;;;;8.32;5.57;;;;;;;;;;5093125;28;20437;-64
2021/08/30 14:09:29;;;;;;;8.63;4.72;;;;;;;;;;5093032;28;20048;-64
2021/08/30 14:12:14;;;;;;;4.60;4.10;;;;;;;;;;5092867;28;20055;-63
2021/08/30 14:15:00;;;;;;;5.10;4.45;;;;;;;;;;5092857;28;20273;-64
2021/08/30 14:17:45;;;;;;;6.45;4.72;;;;;;;;;;5092980;28;20052;-64
2021/08/30 14:20:30;;;;;;;6.97;5.60;;;;;;;;;;5092726;28;20521;-64
2021/08/30 14:23:18;;;;;;;6.95;5.75;;;;;;;;;;5092898;28;20052;-64
2021/08/30 14:26:03;;;;;;;7.88;5.65;;;;;;;;;;5092752;28;20044;-64
2021/08/30 14:28:48;;;;;;;6.15;4.25;;;;;;;;;;5092592;28;20436;-64
2021/08/30 14:31:34;;;;;;;7.88;5.25;;;;;;;;;;5092796;28;20127;-64
2021/08/30 14:34:19;;;;;;;6.75;4.40;;;;;;;;;;5092382;28;20056;-64
2021/08/30 14:37:05;;;;;;;5.57;5.05;;;;;;;;;;5092424;28;20056;-64
2021/08/30 14:39:50;;;;;;;6.35;5.20;;;;;;;;;;5091831;28;20448;-63
2021/08/30 14:42:35;;;;;;;6.72;4.95;;;;;;;;;;5092490;28;20119;-64
2021/08/30 14:45:20;;;;;;;6.55;4.97;;;;;;;;;;5091965;28;20060;-64
2021/08/30 14:48:06;;;;;;;8.07;5.35;;;;;;;;;;5138207;22;20044;-65
2021/08/30 14:50:51;;;;;;;7.35;5.07;;;;;;;;;;5092468;28;20123;-65
2021/08/30 14:53:37;;;;;;;6.97;5.00;;;;;;;;;;5092058;28;20044;-65
2021/08/30 14:56:22;;;;;;;7.07;5.03;;;;;;;;;;5092413;28;20055;-65
2021/08/30 14:59:09;;;;;;;5.10;4.60;;;;;;;;;;5092303;28;20052;-65
2021/08/30 15:01:54;;;;;;;5.43;4.57;;;;;;;;;;5092165;28;20059;-65
2021/08/30 15:04:39;;;;;;;6.07;4.90;;;;;;;;;;5092300;28;20060;-65
2021/08/30 15:07:25;;;;;;;6.85;4.85;;;;;;;;;;5092212;28;20048;-65
2021/08/30 15:10:10;;;;;;;6.57;4.82;;;;;;;;;;5092132;28;20048;-65
2021/08/30 15:12:56;;;;;;;5.90;5.05;;;;;;;;;;5092253;28;20052;-65
2021/08/30 15:15:41;;;;;;;5.85;5.25;;;;;;;;;;5092009;28;20052;-65
2021/08/30 15:18:26;;;;;;;6.18;5.20;;;;;;;;;;5093850;28;20127;-65
2021/08/30 15:21:12;;;;;;;5.72;5.05;;;;;;;;;;5096836;28;20119;-65
2021/08/30 15:23:57;;;;;;;8.38;5.40;;;;;;;;;;5096660;28;20048;-65
2021/08/30 15:26:42;;;;;;;7.75;5.90;;;;;;;;;;5096523;28;20052;-65
2021/08/30 15:29:31;;;;;;;7.03;4.93;;;;;;;;;;5094167;28;20075;-65
2021/08/30 15:32:16;;;;;;;5.68;4.95;;;;;;;;;;5092002;28;20048;-65
2021/08/30 15:35:02;;;;;;;6.60;4.97;;;;;;;;;;5091560;28;20494;-65
2021/08/30 15:37:48;;;;;;;7.65;6.32;;;;;;;;;;5092015;28;20063;-65
2021/08/30 15:40:33;;;;;;;6.05;5.00;;;;;;;;;;5091902;28;20063;-65
2021/08/30 15:43:19;;;;;;;7.93;4.68;;;;;;;;;;5091772;28;20572;-65
2021/08/30 15:46:04;;;;;;;6.00;5.35;;;;;;;;;;5091397;28;20056;-65
2021/08/30 15:48:49;;;;;;;6.22;4.90;;;;;;;;;;5091678;28;20048;-64
2021/08/30 15:51:35;;;;;;;7.75;5.60;;;;;;;;;;5094707;28;20048;-64
2021/08/30 15:54:20;;;;;;;7.15;5.22;;;;;;;;;;5095279;28;20052;-64
2021/08/30 15:57:06;;;;;;;7.68;5.78;;;;;;;;;;5095632;28;20051;-65
2021/08/30 15:59:51;;;;;;;8.35;6.53;;;;;;;;;;5095527;28;20048;-64
2021/08/30 16:02:38;;;;;;;8.13;6.28;;;;;;;;;;5095338;28;20055;-64
2021/08/30 16:05:23;;;;;;;7.65;6.22;;;;;;;;;;5095228;28;20059;-64
2021/08/30 16:08:08;;;;;;;7.85;5.85;;;;;;;;;;5095423;28;20048;-65
2021/08/30 16:10:54;;;;;;;7.38;5.90;;;;;;;;;;5095184;28;20118;-64
2021/08/30 16:13:39;;;;;;;6.38;5.65;;;;;;;;;;5095244;28;20048;-64
2021/08/30 16:16:25;;;;;;;5.70;5.03;;;;;;;;;;5095304;28;20119;-64
2021/08/30 16:19:10;;;;;;;7.63;4.85;;;;;;;;;;5095113;28;20051;-64
2021/08/30 16:21:55;;;;;;;7.90;5.43;;;;;;;;;;5095167;28;20056;-64
2021/08/30 16:24:41;;;;;;;9.25;6.63;;;;;;;;;;5094906;28;20052;-64